Bananal, Brazil
Current Conditions -  °F | °C
As of 4:00 PM on Thursday 30 Oct 2014 (Local Time) from SBSC Reporting Station
Few Clouds Few Clouds  
Wind Chill: 97°   Ceiling: Unl
Heat Index: 98°   Visibility: 6mi
Dew Point: 63°   Wind: 21mph
Humidity: 32%   Direction: 50°NE
Pressure: 29.71"   Gusts: NA
Location:  22.68°S, 44.32°W
Report Text: SBSC 301800Z 05018KT 9999 FEW035TCU 36/17 Q1006
Loading
Personal Weather Stations






























Interactive Weather Map
Tropical Storm Tracking
New forecast layout! Learn more

10-Day Weather Forecast

Advertisements
Track Severe Weather on mobile